createdAt,value
2023-01-26T00:01:22.755Z,1.04
2023-01-26T00:04:26.068Z,0.92
2023-01-26T00:07:29.427Z,0.98
2023-01-26T00:10:32.726Z,1.05
2023-01-26T00:13:36.623Z,1.09
2023-01-26T00:16:40.570Z,1.18
2023-01-26T00:19:43.718Z,1.18
2023-01-26T00:22:46.983Z,0.89
2023-01-26T00:25:50.075Z,1.08
2023-01-26T00:28:54.013Z,1.09
2023-01-26T00:31:57.761Z,1.07
2023-01-26T00:35:00.991Z,0.95
2023-01-26T00:38:05.009Z,0.96
2023-01-26T00:41:30.468Z,1.05
2023-01-26T00:44:33.431Z,0.99
2023-01-26T00:47:42.691Z,0.98
2023-01-26T00:50:45.813Z,1.05
2023-01-26T00:53:49.059Z,1.07
2023-01-26T00:56:51.966Z,1.06
2023-01-26T00:59:55.673Z,1.04
2023-01-26T01:03:01.143Z,1.08
2023-01-26T01:06:04.567Z,1.12
2023-01-26T01:09:08.130Z,1.03
2023-01-26T01:12:11.284Z,1.05
2023-01-26T01:15:14.281Z,1.08
2023-01-26T01:18:17.538Z,1.07
2023-01-26T01:21:22.852Z,1.10
2023-01-26T01:24:26.120Z,1.09
2023-01-26T01:27:29.639Z,1.05
2023-01-26T01:30:32.832Z,1.06
2023-01-26T01:33:35.814Z,1.00
2023-01-26T01:36:39.137Z,1.02
2023-01-26T01:39:42.083Z,1.06
2023-01-26T01:42:49.258Z,1.03
2023-01-26T01:45:53.412Z,1.05
2023-01-26T01:49:00.099Z,0.93
2023-01-26T01:52:12.357Z,0.94
2023-01-26T01:55:16.446Z,0.95
2023-01-26T01:58:20.015Z,0.99
2023-01-26T02:01:23.753Z,0.97
2023-01-26T02:04:27.868Z,0.87
2023-01-26T02:07:31.218Z,0.95
2023-01-26T02:10:34.454Z,0.97
2023-01-26T02:13:38.020Z,0.95
2023-01-26T02:16:41.291Z,0.96
2023-01-26T02:20:10.007Z,0.98
2023-01-26T02:23:27.204Z,0.98
2023-01-26T02:26:32.950Z,0.88
2023-01-26T02:29:37.215Z,0.95
2023-01-26T02:32:40.193Z,0.97
2023-01-26T02:35:43.492Z,0.94
2023-01-26T02:38:52.208Z,0.97
2023-01-26T02:42:14.222Z,1.00
2023-01-26T02:45:17.536Z,1.01
2023-01-26T02:48:40.648Z,1.02
2023-01-26T02:51:43.625Z,0.99
2023-01-26T02:55:05.809Z,0.93
2023-01-26T02:58:08.803Z,0.78
2023-01-26T03:01:12.171Z,0.81
2023-01-26T03:04:22.771Z,0.87
2023-01-26T03:07:26.053Z,0.88
2023-01-26T03:10:29.018Z,0.94
2023-01-26T03:13:32.299Z,0.99
2023-01-26T03:16:35.466Z,1.05
2023-01-26T03:19:58.189Z,0.96
2023-01-26T03:23:34.815Z,0.99
2023-01-26T03:26:59.116Z,1.05
2023-01-26T03:30:02.360Z,0.93
2023-01-26T03:33:05.724Z,0.92
2023-01-26T03:36:09.692Z,0.95
2023-01-26T03:39:33.853Z,1.02
2023-01-26T03:42:56.493Z,1.05
2023-01-26T03:46:24.990Z,1.02
2023-01-26T03:49:46.713Z,0.72
2023-01-26T03:53:08.938Z,0.84
2023-01-26T03:56:18.510Z,0.78
2023-01-26T03:59:37.949Z,0.93
2023-01-26T04:03:00.928Z,1.00
2023-01-26T04:06:24.005Z,1.04
2023-01-26T04:09:29.291Z,1.06
2023-01-26T04:12:34.460Z,1.06
2023-01-26T04:15:58.599Z,1.02
2023-01-26T04:19:21.210Z,1.04
2023-01-26T04:22:24.238Z,1.01
2023-01-26T04:25:27.974Z,0.94
2023-01-26T04:28:33.712Z,0.92
2023-01-26T04:31:39.116Z,0.99
2023-01-26T04:34:44.407Z,1.04
2023-01-26T04:37:49.885Z,0.95
2023-01-26T04:40:55.833Z,1.02
2023-01-26T04:43:59.312Z,1.05
2023-01-26T04:47:02.840Z,1.05
2023-01-26T04:50:06.580Z,0.96
2023-01-26T04:53:09.523Z,0.85
2023-01-26T04:56:23.687Z,0.85
2023-01-26T04:59:26.418Z,0.97
2023-01-26T05:02:30.639Z,1.00
2023-01-26T05:05:37.385Z,1.01
2023-01-26T05:08:42.556Z,1.05
2023-01-26T05:11:46.108Z,1.05
2023-01-26T05:14:50.617Z,1.11
2023-01-26T05:17:54.108Z,1.16
2023-01-26T05:20:58.955Z,1.11
2023-01-26T05:24:02.114Z,1.13
2023-01-26T05:27:24.133Z,1.07
2023-01-26T05:30:27.703Z,1.11
2023-01-26T05:33:31.873Z,1.06
2023-01-26T05:36:35.276Z,0.99
2023-01-26T05:39:39.114Z,1.02
2023-01-26T05:42:44.174Z,1.02
2023-01-26T05:45:48.007Z,1.10
2023-01-26T05:48:51.512Z,1.11
2023-01-26T05:51:55.068Z,1.05
2023-01-26T05:54:59.135Z,1.02
2023-01-26T05:58:02.691Z,0.96
2023-01-26T06:01:05.892Z,1.02
2023-01-26T06:04:09.770Z,1.02
2023-01-26T06:07:13.759Z,1.03
2023-01-26T06:10:17.280Z,1.02
2023-01-26T06:13:21.698Z,1.01
2023-01-26T06:16:25.111Z,0.95
2023-01-26T06:19:28.103Z,0.90
2023-01-26T06:22:32.968Z,0.92
2023-01-26T06:25:36.685Z,0.93
2023-01-26T06:28:42.215Z,0.98
2023-01-26T06:31:45.410Z,1.00
2023-01-26T06:34:49.606Z,1.04
2023-01-26T06:37:53.271Z,1.06
2023-01-26T06:41:00.610Z,0.96
2023-01-26T06:44:03.723Z,0.96
2023-01-26T06:47:07.861Z,1.05
2023-01-26T06:50:11.544Z,1.03
2023-01-26T06:53:40.258Z,0.98
2023-01-26T06:56:45.859Z,0.93
2023-01-26T06:59:51.541Z,0.97
2023-01-26T07:02:54.738Z,1.02
2023-01-26T07:05:58.013Z,0.99
2023-01-26T07:09:01.070Z,1.07
2023-01-26T07:12:04.998Z,1.09
2023-01-26T07:15:09.396Z,1.02
2023-01-26T07:18:12.770Z,1.05
2023-01-26T07:21:20.647Z,1.04
2023-01-26T07:24:24.149Z,1.07
2023-01-26T07:27:27.145Z,1.05
2023-01-26T07:30:30.840Z,1.04
2023-01-26T07:33:35.083Z,1.05
2023-01-26T07:36:38.540Z,1.04
2023-01-26T07:39:41.517Z,1.03
2023-01-26T07:42:44.699Z,1.08
2023-01-26T07:45:54.710Z,1.12
2023-01-26T07:48:58.562Z,1.17
2023-01-26T07:52:03.229Z,1.21
2023-01-26T07:55:08.339Z,1.24
2023-01-26T07:58:11.902Z,1.24
2023-01-26T08:01:15.754Z,1.28
2023-01-26T08:04:19.351Z,1.28
2023-01-26T08:07:22.347Z,1.33
2023-01-26T08:10:26.259Z,1.26
2023-01-26T08:13:35.689Z,1.30
2023-01-26T08:16:39.442Z,1.37
2023-01-26T08:19:42.414Z,1.28
2023-01-26T08:22:45.633Z,1.23
2023-01-26T08:25:48.795Z,1.37
2023-01-26T08:28:52.081Z,1.28
2023-01-26T08:31:56.698Z,1.20
2023-01-26T08:35:01.606Z,1.32
2023-01-26T08:38:04.883Z,1.38
2023-01-26T08:41:09.917Z,1.50
2023-01-26T08:44:14.117Z,1.47
2023-01-26T08:47:17.316Z,1.37
2023-01-26T08:50:20.205Z,1.20
2023-01-26T08:53:24.152Z,1.37
2023-01-26T08:56:27.130Z,1.24
2023-01-26T08:59:30.232Z,1.22
2023-01-26T09:02:33.246Z,1.46
2023-01-26T09:05:38.558Z,1.52
2023-01-26T09:08:41.574Z,1.63
2023-01-26T09:11:45.022Z,1.67
2023-01-26T09:14:48.070Z,1.67
2023-01-26T09:17:51.455Z,1.62
2023-01-26T09:20:56.248Z,1.66
2023-01-26T09:24:01.081Z,1.69
2023-01-26T09:27:04.395Z,1.71
2023-01-26T09:30:09.192Z,1.80
2023-01-26T09:33:13.325Z,1.86
2023-01-26T09:36:17.020Z,1.84
2023-01-26T09:39:20.179Z,1.88
2023-01-26T09:42:38.470Z,1.83
2023-01-26T09:45:56.810Z,1.87
2023-01-26T09:49:14.462Z,1.92
2023-01-26T09:52:28.642Z,1.84
2023-01-26T09:55:32.205Z,1.88
2023-01-26T09:58:40.333Z,1.93
2023-01-26T10:01:54.197Z,1.87
2023-01-26T10:04:59.331Z,1.95
2023-01-26T10:08:13.831Z,1.96
2023-01-26T10:11:36.427Z,2.05
2023-01-26T10:14:49.639Z,2.24
2023-01-26T10:17:55.118Z,2.30
2023-01-26T10:21:00.253Z,2.32
2023-01-26T10:24:03.582Z,2.35
2023-01-26T10:27:11.161Z,2.34
2023-01-26T10:30:19.634Z,2.31
2023-01-26T10:33:37.604Z,2.49
2023-01-26T10:36:43.162Z,2.48
2023-01-26T10:40:01.493Z,2.42
2023-01-26T10:43:05.152Z,2.43
2023-01-26T10:46:31.621Z,2.55
2023-01-26T10:49:34.898Z,2.68
2023-01-26T10:52:38.424Z,2.49
2023-01-26T10:55:41.907Z,2.55
2023-01-26T10:58:50.376Z,2.67
2023-01-26T11:01:59.084Z,2.66
2023-01-26T11:05:08.323Z,2.66
2023-01-26T11:08:35.672Z,2.76
2023-01-26T11:11:38.661Z,2.82
2023-01-26T11:14:42.080Z,2.79
2023-01-26T11:18:03.650Z,2.82
2023-01-26T11:21:11.893Z,2.97
2023-01-26T11:24:30.397Z,2.90
2023-01-26T11:27:36.576Z,2.89
2023-01-26T11:31:03.835Z,2.97
2023-01-26T11:34:53.860Z,2.83
2023-01-26T11:38:09.703Z,3.00
2023-01-26T11:41:38.006Z,3.08
2023-01-26T11:45:31.836Z,3.01
2023-01-26T11:48:50.319Z,2.95
2023-01-26T11:52:09.820Z,2.59
2023-01-26T11:55:23.768Z,2.93
2023-01-26T11:58:47.595Z,3.10
2023-01-26T12:02:04.176Z,2.94
2023-01-26T12:05:24.750Z,3.19
2023-01-26T12:08:42.175Z,3.15
2023-01-26T12:11:52.912Z,3.20
2023-01-26T12:15:10.795Z,3.21
2023-01-26T12:18:22.908Z,2.96
2023-01-26T12:21:26.514Z,3.29
2023-01-26T12:25:04.900Z,3.14
2023-01-26T12:27:59.468Z,3.17
2023-01-26T12:31:21.935Z,3.29
2023-01-26T12:34:29.098Z,3.23
2023-01-26T12:37:48.167Z,3.26
2023-01-26T12:41:09.886Z,3.27
2023-01-26T12:44:28.425Z,3.29
2023-01-26T12:47:39.346Z,3.43
2023-01-26T12:50:51.033Z,3.43
2023-01-26T12:54:18.747Z,3.37
2023-01-26T12:57:26.108Z,3.11
2023-01-26T13:00:31.652Z,3.22
2023-01-26T13:03:42.001Z,3.07
2023-01-26T13:06:46.376Z,3.00
2023-01-26T13:10:15.152Z,3.06
2023-01-26T13:13:18.283Z,2.94
2023-01-26T13:16:22.756Z,2.86
2023-01-26T13:19:37.296Z,2.81
2023-01-26T13:22:41.908Z,2.78
2023-01-26T13:25:56.530Z,2.77
2023-01-26T13:29:27.711Z,2.72
2023-01-26T13:32:36.980Z,2.55
2023-01-26T13:35:40.582Z,2.57
2023-01-26T13:38:49.056Z,2.57
2023-01-26T13:41:53.293Z,2.43
2023-01-26T13:45:04.887Z,2.52
2023-01-26T13:48:19.262Z,2.52
2023-01-26T13:51:28.022Z,2.51
2023-01-26T13:54:31.326Z,2.50
2023-01-26T13:57:34.298Z,2.39
2023-01-26T14:00:37.634Z,2.42
2023-01-26T14:03:40.981Z,2.37
2023-01-26T14:06:50.467Z,2.33
2023-01-26T14:09:55.546Z,2.25
2023-01-26T14:13:00.635Z,2.30
2023-01-26T14:16:08.567Z,2.25
2023-01-26T14:19:16.968Z,2.20
2023-01-26T14:22:22.220Z,2.16
2023-01-26T14:25:25.407Z,2.15
2023-01-26T14:28:35.136Z,2.11
2023-01-26T14:31:38.093Z,2.12
2023-01-26T14:34:54.231Z,2.04
2023-01-26T14:38:20.559Z,2.00
2023-01-26T14:41:33.844Z,2.06
2023-01-26T14:44:36.826Z,2.06
2023-01-26T14:47:41.515Z,2.01
2023-01-26T14:50:45.174Z,1.89
2023-01-26T14:53:54.273Z,1.92
2023-01-26T14:56:58.490Z,1.90
2023-01-26T15:00:02.603Z,1.87
2023-01-26T15:03:15.304Z,1.94
2023-01-26T15:06:21.672Z,1.84
2023-01-26T15:09:29.762Z,1.80
2023-01-26T15:12:36.062Z,1.76
2023-01-26T15:15:48.699Z,1.76
2023-01-26T15:19:08.516Z,1.70
2023-01-26T15:22:23.169Z,1.76
2023-01-26T15:25:29.142Z,1.67
2023-01-26T15:28:34.240Z,1.66
2023-01-26T15:31:44.286Z,1.69
2023-01-26T15:34:47.212Z,1.64
2023-01-26T15:38:10.713Z,1.60
2023-01-26T15:41:14.030Z,1.51
2023-01-26T15:44:19.611Z,1.53
2023-01-26T15:47:22.665Z,1.52
2023-01-26T15:50:28.259Z,1.45
2023-01-26T15:53:31.428Z,1.41
2023-01-26T15:56:34.690Z,1.51
2023-01-26T15:59:38.403Z,1.45
2023-01-26T16:02:41.775Z,1.41
2023-01-26T16:05:48.138Z,1.41
2023-01-26T16:08:51.480Z,1.38
2023-01-26T16:11:54.718Z,1.37
2023-01-26T16:14:59.352Z,1.37
2023-01-26T16:18:02.685Z,1.39
2023-01-26T16:21:26.446Z,1.42
2023-01-26T16:24:30.024Z,1.43
2023-01-26T16:27:33.375Z,1.39
2023-01-26T16:30:36.734Z,1.41
2023-01-26T16:33:39.713Z,1.44
2023-01-26T16:36:42.971Z,1.43
2023-01-26T16:39:45.992Z,1.43
2023-01-26T16:42:52.015Z,1.37
2023-01-26T16:45:55.779Z,1.32
2023-01-26T16:48:59.119Z,1.34
2023-01-26T16:52:02.309Z,1.29
2023-01-26T16:55:06.579Z,1.25
2023-01-26T16:58:10.133Z,1.26
2023-01-26T17:01:44.871Z,1.23
2023-01-26T17:04:48.151Z,1.24
2023-01-26T17:07:51.694Z,1.22
2023-01-26T17:11:02.503Z,1.20
2023-01-26T17:14:06.125Z,1.18
2023-01-26T17:17:10.600Z,1.18
2023-01-26T17:20:19.277Z,1.15
2023-01-26T17:23:22.903Z,1.09
2023-01-26T17:26:26.326Z,1.09
2023-01-26T17:29:29.788Z,1.11
2023-01-26T17:32:33.434Z,1.07
2023-01-26T17:35:36.473Z,1.09
2023-01-26T17:38:40.052Z,1.08
2023-01-26T17:41:43.289Z,0.98
2023-01-26T17:44:47.092Z,1.01
2023-01-26T17:47:50.229Z,0.97
2023-01-26T17:50:55.460Z,0.87
2023-01-26T17:54:01.065Z,0.95
2023-01-26T17:57:04.468Z,0.92
2023-01-26T18:00:09.065Z,0.92
2023-01-26T18:03:14.302Z,0.88
2023-01-26T18:06:17.908Z,0.88
2023-01-26T18:09:21.674Z,0.84
2023-01-26T18:12:24.765Z,0.85
2023-01-26T18:15:29.772Z,0.81
2023-01-26T18:18:34.610Z,0.78
2023-01-26T18:21:38.962Z,0.79
2023-01-26T18:24:43.087Z,0.81
2023-01-26T18:27:46.855Z,0.78
2023-01-26T18:30:50.787Z,0.72
2023-01-26T18:33:56.845Z,0.66
2023-01-26T18:37:01.309Z,0.71
2023-01-26T18:40:08.043Z,0.68
2023-01-26T18:43:11.628Z,0.69
2023-01-26T18:46:16.748Z,0.71
2023-01-26T18:49:21.743Z,0.70
2023-01-26T18:52:26.846Z,0.67
2023-01-26T18:55:35.005Z,0.64
2023-01-26T18:58:39.786Z,0.71
2023-01-26T19:01:45.026Z,0.73
2023-01-26T19:04:53.958Z,0.74
2023-01-26T19:07:58.170Z,0.79
2023-01-26T19:11:09.574Z,0.84
2023-01-26T19:14:13.950Z,0.89
2023-01-26T19:17:18.870Z,0.86
2023-01-26T19:20:23.492Z,0.95
2023-01-26T19:23:31.147Z,0.89
2023-01-26T19:26:35.767Z,0.87
2023-01-26T19:29:40.615Z,0.84
2023-01-26T19:33:03.377Z,0.82
2023-01-26T19:36:09.446Z,0.84
2023-01-26T19:39:15.046Z,0.80
2023-01-26T19:42:20.982Z,0.78
2023-01-26T19:45:25.383Z,0.72
2023-01-26T19:48:28.910Z,0.71
2023-01-26T19:51:33.765Z,0.67
2023-01-26T19:54:38.978Z,0.61
2023-01-26T19:57:43.338Z,0.60
2023-01-26T20:00:48.904Z,0.61
2023-01-26T20:03:58.666Z,0.56
2023-01-26T20:07:05.919Z,0.64
2023-01-26T20:10:11.326Z,0.65
2023-01-26T20:13:16.161Z,0.64
2023-01-26T20:16:22.210Z,0.70
2023-01-26T20:19:28.519Z,0.56
2023-01-26T20:22:34.674Z,0.55
2023-01-26T20:25:39.128Z,0.54
2023-01-26T20:28:43.610Z,0.53
2023-01-26T20:31:48.431Z,0.59
2023-01-26T20:34:53.718Z,0.61
2023-01-26T20:37:59.144Z,0.62
2023-01-26T20:41:11.320Z,0.60
2023-01-26T20:44:16.237Z,0.59
2023-01-26T20:47:22.034Z,0.57
2023-01-26T20:50:25.489Z,0.59
2023-01-26T20:53:31.199Z,0.60
2023-01-26T20:56:35.238Z,0.59
2023-01-26T20:59:39.874Z,0.56
2023-01-26T21:02:43.994Z,0.52
2023-01-26T21:05:48.840Z,0.52
2023-01-26T21:08:55.655Z,0.56
2023-01-26T21:11:59.320Z,0.54
2023-01-26T21:15:02.707Z,0.57
2023-01-26T21:18:07.355Z,0.55
2023-01-26T21:21:15.203Z,0.56
2023-01-26T21:24:20.200Z,0.54
2023-01-26T21:27:23.603Z,0.53
2023-01-26T21:30:28.829Z,0.39
2023-01-26T21:33:33.953Z,0.47
2023-01-26T21:36:37.822Z,0.47
2023-01-26T21:39:40.876Z,0.49
2023-01-26T21:42:44.679Z,0.42
2023-01-26T21:45:53.797Z,0.43
2023-01-26T21:48:57.677Z,0.50
2023-01-26T21:52:19.131Z,0.48
2023-01-26T21:55:22.459Z,0.47
2023-01-26T21:58:43.961Z,0.44
2023-01-26T22:01:49.483Z,0.42
2023-01-26T22:04:52.898Z,0.43
2023-01-26T22:07:55.941Z,0.44
2023-01-26T22:10:59.392Z,0.39
2023-01-26T22:14:03.709Z,0.35
2023-01-26T22:17:06.961Z,0.32
2023-01-26T22:20:12.307Z,0.32
2023-01-26T22:23:16.928Z,0.27
2023-01-26T22:26:21.441Z,0.25
2023-01-26T22:29:25.498Z,0.27
2023-01-26T22:32:28.451Z,0.25
2023-01-26T22:35:32.677Z,0.27
2023-01-26T22:38:36.617Z,0.34
2023-01-26T22:41:40.283Z,0.32
2023-01-26T22:44:43.192Z,0.37
2023-01-26T22:47:49.899Z,0.38
2023-01-26T22:50:52.872Z,0.40
2023-01-26T22:53:57.066Z,0.43
2023-01-26T22:56:59.973Z,0.47
2023-01-26T23:00:06.183Z,0.43
2023-01-26T23:03:09.101Z,0.47
2023-01-26T23:06:14.474Z,0.40
2023-01-26T23:09:17.454Z,0.39
2023-01-26T23:12:34.443Z,0.38
2023-01-26T23:15:38.401Z,0.38
2023-01-26T23:18:42.249Z,0.40
2023-01-26T23:21:45.251Z,0.41
2023-01-26T23:25:08.510Z,0.45
2023-01-26T23:28:11.501Z,0.50
2023-01-26T23:31:16.437Z,0.50
2023-01-26T23:34:19.431Z,0.49
2023-01-26T23:37:22.804Z,0.50
2023-01-26T23:40:25.936Z,0.48
2023-01-26T23:43:29.181Z,0.45
2023-01-26T23:46:32.098Z,0.37
2023-01-26T23:49:35.047Z,0.36
2023-01-26T23:52:37.913Z,0.32
2023-01-26T23:55:42.472Z,0.34
2023-01-26T23:58:45.967Z,0.36
